Pagrindinis puslapis
METAR-TAF:

METAR-TAF

Oro uostai :

Eliazihas, Turkija

platuma: 38-36N, ilguma: 039-17E, Aukštis: 902 m

Dabartinis oras

Ataskaita buvo paskelbta 1 valandą ir 9 minutes, ne 19:50 UTC
Vėjas 1 kt nuo kintamojo kryptimis
Temperatūra 6°C
Drėgmė 93%
Slėgis 1022 hPa
Matomumas 10 km arba daugiau
Išsisklaidę debesys ne aukštis 3300 ft
Su prošvaistėmis ne aukštis 10000 ft

METAR: LTCA 151950Z VRB01KT 9999 SCT033 BKN100 06/05 Q1022 NOSIG

Laikas: 23:59 (20:59 UTC)

Prognozė

Ataskaita buvo paskelbta 1 valandą ir 19 minutes, ne 19:40 UTC
Prognozė galioja nuo 15 metu 21 UTC su 16 metu 06 UTC
Vėjas 2 kt nuo kintamojo kryptimis
Matomumas 10 km arba daugiau
Išsisklaidę debesys ne aukštis 1500 ft
Išsisklaidę debesys ne aukštis 3500 ft
Su prošvaistėmis ne aukštis 10000 ft
Tikimybė 30% :
Laikinai
nuo 16 metu 00 UTC su 16 metu 03 UTC
Matomumas: 4000 m
Su prošvaistėmis ne aukštis 1200 ft
rūkana

TAF: LTCA 151940Z 1521/1606 VRB02KT 9999 SCT015 SCT035 BKN100 PROB30 TEMPO 1600/1603 4000 BR BKN012

Orai ataskaitas ir orų prognozės (METAR, TAF).

turimą stotys yra geltonos ir raudonos taškus žemėlapyje.

Perkelti pele per norėdami pamatyti stoties vardą.

Tada spustelėkite, norėdami matyti oro stebėjimo ir prognozės.

Norėdami pakeisti žemėlapį: spustelėkite ant žalios mygtukų su juodo kryžiaus žemyn,; žalią mygtuką su brūkšneliu, jei norite nutolinti; arba žalių rodyklių gretimoms žemėlapius.


METAR-TAF: